createdAt,value
2023-03-22T00:02:02.741Z,9.00
2023-03-22T00:04:29.747Z,6.47
2023-03-22T00:06:56.635Z,5.63
2023-03-22T00:09:23.521Z,5.37
2023-03-22T00:11:51.104Z,5.30
2023-03-22T00:14:21.109Z,6.83
2023-03-22T00:16:49.310Z,9.57
2023-03-22T00:19:17.555Z,10.03
2023-03-22T00:21:44.838Z,7.03
2023-03-22T00:24:12.014Z,10.20
2023-03-22T00:26:38.985Z,6.37
2023-03-22T00:29:06.218Z,6.73
2023-03-22T00:31:33.119Z,5.90
2023-03-22T00:33:59.966Z,10.60
2023-03-22T00:36:26.864Z,6.90
2023-03-22T00:38:53.705Z,5.87
2023-03-22T00:41:22.422Z,5.87
2023-03-22T00:43:51.209Z,7.20
2023-03-22T00:46:20.688Z,12.43
2023-03-22T00:48:47.979Z,9.20
2023-03-22T00:51:15.824Z,5.83
2023-03-22T00:53:44.996Z,7.20
2023-03-22T00:56:16.108Z,5.97
2023-03-22T00:58:43.959Z,13.70
2023-03-22T01:01:14.739Z,7.37
2023-03-22T01:03:42.886Z,5.40
2023-03-22T01:06:10.656Z,9.30
2023-03-22T01:08:39.224Z,4.90
2023-03-22T01:11:07.824Z,7.10
2023-03-22T01:13:37.619Z,5.93
2023-03-22T01:16:06.097Z,5.93
2023-03-22T01:18:33.019Z,14.10
2023-03-22T01:21:00.370Z,11.43
2023-03-22T01:23:27.615Z,6.10
2023-03-22T01:25:54.467Z,10.77
2023-03-22T01:28:21.359Z,5.80
2023-03-22T01:30:48.355Z,7.23
2023-03-22T01:33:15.404Z,6.40
2023-03-22T01:35:42.254Z,11.30
2023-03-22T01:38:09.063Z,6.90
2023-03-22T01:40:35.984Z,10.13
2023-03-22T01:43:02.856Z,5.43
2023-03-22T01:45:42.989Z,8.83
2023-03-22T01:48:21.950Z,5.07
2023-03-22T01:51:11.047Z,7.03
2023-03-22T01:53:48.771Z,5.90
2023-03-22T01:56:19.154Z,8.10
2023-03-22T01:58:47.206Z,7.50
2023-03-22T02:01:14.168Z,15.33
2023-03-22T02:04:09.990Z,6.17
2023-03-22T02:06:38.341Z,10.20
2023-03-22T02:09:11.939Z,5.37
2023-03-22T02:11:44.288Z,11.03
2023-03-22T02:14:20.034Z,11.33
2023-03-22T02:17:37.952Z,8.70
2023-03-22T02:20:43.876Z,8.07
2023-03-22T02:23:32.100Z,6.57
2023-03-22T02:26:49.937Z,7.00
2023-03-22T02:29:37.245Z,11.30
2023-03-22T02:32:25.964Z,10.90
2023-03-22T02:35:15.757Z,8.77
2023-03-22T02:38:34.265Z,9.57
2023-03-22T02:41:23.601Z,9.00
2023-03-22T02:44:16.374Z,12.67
2023-03-22T02:47:02.349Z,10.70
2023-03-22T02:49:41.404Z,12.80
2023-03-22T02:52:49.146Z,13.07
2023-03-22T02:55:29.580Z,10.93
2023-03-22T02:58:22.444Z,7.80
2023-03-22T03:00:53.497Z,11.40
2023-03-22T03:03:25.604Z,10.70
2023-03-22T03:05:58.002Z,7.97
2023-03-22T03:08:26.514Z,11.57
2023-03-22T03:10:54.627Z,10.53
2023-03-22T03:13:21.777Z,8.27
2023-03-22T03:15:57.302Z,10.13
2023-03-22T03:19:03.270Z,9.63
2023-03-22T03:21:52.688Z,15.30
2023-03-22T03:24:37.827Z,8.53
2023-03-22T03:27:16.997Z,8.60
2023-03-22T03:30:14.075Z,10.37
2023-03-22T03:32:49.677Z,8.80
2023-03-22T03:35:31.013Z,8.57
2023-03-22T03:38:12.237Z,10.70
2023-03-22T03:40:49.856Z,12.30
2023-03-22T03:43:17.982Z,12.23
2023-03-22T03:45:45.745Z,8.33
2023-03-22T03:48:21.684Z,8.17
2023-03-22T03:50:52.056Z,10.17
2023-03-22T03:53:20.181Z,9.50
2023-03-22T03:55:47.177Z,10.83
2023-03-22T03:58:16.147Z,12.20
2023-03-22T04:00:43.444Z,8.80
2023-03-22T04:03:10.386Z,8.80
2023-03-22T04:05:37.336Z,9.27
2023-03-22T04:08:04.632Z,10.00
2023-03-22T04:10:31.816Z,12.73
2023-03-22T04:12:58.656Z,8.20
2023-03-22T04:15:25.622Z,8.73
2023-03-22T04:17:53.875Z,11.70
2023-03-22T04:20:21.432Z,9.57
2023-03-22T04:22:49.029Z,9.37
2023-03-22T04:25:18.292Z,11.00
2023-03-22T04:27:47.335Z,13.10
2023-03-22T04:30:22.993Z,9.07
2023-03-22T04:32:50.466Z,9.10
2023-03-22T04:35:17.684Z,17.77
2023-03-22T04:37:45.730Z,9.40
2023-03-22T04:40:17.367Z,9.90
2023-03-22T04:42:45.606Z,7.90
2023-03-22T04:45:13.538Z,9.30
2023-03-22T04:47:40.860Z,8.17
2023-03-22T04:50:11.082Z,10.40
2023-03-22T04:52:38.040Z,10.07
2023-03-22T04:55:05.508Z,11.67
2023-03-22T04:57:32.455Z,10.90
2023-03-22T04:59:59.437Z,11.37
2023-03-22T05:02:26.340Z,10.10
2023-03-22T05:04:53.254Z,8.13
2023-03-22T05:07:20.070Z,8.70
2023-03-22T05:09:46.907Z,13.17
2023-03-22T05:12:13.808Z,7.03
2023-03-22T05:14:40.768Z,7.87
2023-03-22T05:17:07.631Z,8.73
2023-03-22T05:19:34.509Z,12.97
2023-03-22T05:22:02.135Z,16.30
2023-03-22T05:24:32.230Z,13.40
2023-03-22T05:27:01.199Z,11.13
2023-03-22T05:29:28.691Z,7.13
2023-03-22T05:31:55.836Z,15.60
2023-03-22T05:34:22.943Z,7.23
2023-03-22T05:36:51.630Z,7.90
2023-03-22T05:39:19.036Z,14.23
2023-03-22T05:41:46.426Z,9.30
2023-03-22T05:44:13.437Z,7.83
2023-03-22T05:46:40.393Z,7.23
2023-03-22T05:49:07.317Z,6.67
2023-03-22T05:51:36.849Z,7.77
2023-03-22T05:54:03.990Z,12.20
2023-03-22T05:56:31.026Z,6.97
2023-03-22T05:58:58.285Z,9.50
2023-03-22T06:01:25.526Z,7.40
2023-03-22T06:03:52.360Z,6.83
2023-03-22T06:06:19.307Z,12.80
2023-03-22T06:08:46.264Z,7.23
2023-03-22T06:11:13.152Z,10.77
2023-03-22T06:13:40.049Z,6.37
2023-03-22T06:16:07.546Z,8.23
2023-03-22T06:18:34.450Z,8.10
2023-03-22T06:21:01.444Z,7.03
2023-03-22T06:23:28.573Z,7.37
2023-03-22T06:25:55.686Z,8.10
2023-03-22T06:28:22.596Z,10.73
2023-03-22T06:30:49.744Z,11.80
2023-03-22T06:33:16.637Z,8.13
2023-03-22T06:35:43.698Z,11.13
2023-03-22T06:38:10.868Z,9.80
2023-03-22T06:40:37.972Z,9.10
2023-03-22T06:43:07.122Z,7.73
2023-03-22T06:45:34.485Z,10.37
2023-03-22T06:48:01.544Z,12.37
2023-03-22T06:50:29.362Z,18.03
2023-03-22T06:52:56.536Z,5.80
2023-03-22T06:55:24.063Z,7.33
2023-03-22T06:57:50.966Z,7.10
2023-03-22T07:00:18.426Z,6.60
2023-03-22T07:02:45.551Z,5.53
2023-03-22T07:05:12.375Z,6.50
2023-03-22T07:07:39.259Z,8.47
2023-03-22T07:10:08.017Z,9.90
2023-03-22T07:12:34.987Z,6.40
2023-03-22T07:15:02.551Z,8.67
2023-03-22T07:17:29.501Z,5.07
2023-03-22T07:19:56.496Z,4.80
2023-03-22T07:22:24.956Z,6.13
2023-03-22T07:24:57.263Z,4.60
2023-03-22T07:27:26.181Z,4.47
2023-03-22T07:29:53.148Z,7.43
2023-03-22T07:32:20.252Z,5.80
2023-03-22T07:34:47.217Z,6.00
2023-03-22T07:37:15.033Z,5.70
2023-03-22T07:39:42.132Z,4.93
2023-03-22T07:42:09.648Z,4.30
2023-03-22T07:44:36.736Z,3.90
2023-03-22T07:47:04.050Z,6.33
2023-03-22T07:49:31.401Z,4.53
2023-03-22T07:51:58.404Z,4.97
2023-03-22T07:54:33.572Z,8.10
2023-03-22T07:57:01.792Z,5.20
2023-03-22T07:59:28.934Z,6.73
2023-03-22T08:01:55.925Z,8.63
2023-03-22T08:04:23.438Z,4.40
2023-03-22T08:06:51.449Z,3.57
2023-03-22T08:09:18.445Z,6.67
2023-03-22T08:11:45.394Z,6.57
2023-03-22T08:14:12.274Z,3.10
2023-03-22T08:16:39.371Z,4.20
2023-03-22T08:19:06.759Z,5.20
2023-03-22T08:21:33.672Z,3.80
2023-03-22T08:24:00.528Z,7.37
2023-03-22T08:26:27.843Z,6.73
2023-03-22T08:28:54.725Z,6.77
2023-03-22T08:31:22.683Z,6.03
2023-03-22T08:33:49.997Z,2.93
2023-03-22T08:36:19.995Z,4.83
2023-03-22T08:38:46.873Z,2.77
2023-03-22T08:41:13.796Z,6.33
2023-03-22T08:43:40.734Z,5.93
2023-03-22T08:46:08.260Z,2.53
2023-03-22T08:48:38.028Z,7.03
2023-03-22T08:51:06.517Z,7.23
2023-03-22T08:53:34.572Z,3.87
2023-03-22T08:56:02.305Z,3.67
2023-03-22T08:58:29.264Z,2.87
2023-03-22T09:00:56.186Z,5.97
2023-03-22T09:03:24.991Z,3.70
2023-03-22T09:05:52.102Z,5.13
2023-03-22T09:08:20.020Z,4.93
2023-03-22T09:10:52.218Z,2.60
2023-03-22T09:13:20.489Z,1.73
2023-03-22T09:15:47.851Z,6.27
2023-03-22T09:18:15.382Z,4.50
2023-03-22T09:20:43.828Z,3.00
2023-03-22T09:23:10.751Z,3.87
2023-03-22T09:25:38.092Z,1.77
2023-03-22T09:28:05.563Z,5.23
2023-03-22T09:30:32.770Z,2.23
2023-03-22T09:32:59.963Z,4.70
2023-03-22T09:35:26.905Z,2.90
2023-03-22T09:37:54.750Z,7.63
2023-03-22T09:40:28.859Z,6.00
2023-03-22T09:43:02.351Z,5.30
2023-03-22T09:45:43.113Z,3.33
2023-03-22T09:48:22.832Z,3.53
2023-03-22T09:50:53.625Z,3.27
2023-03-22T09:53:22.690Z,8.20
2023-03-22T09:56:23.200Z,2.80
2023-03-22T09:58:56.557Z,10.17
2023-03-22T10:01:55.427Z,5.60
2023-03-22T10:04:58.721Z,3.60
2023-03-22T10:07:37.428Z,3.13
2023-03-22T10:10:10.234Z,3.80
2023-03-22T10:13:07.833Z,8.20
2023-03-22T10:15:46.600Z,2.20
2023-03-22T10:18:23.438Z,1.73
2023-03-22T10:21:19.550Z,3.50
2023-03-22T10:24:15.479Z,2.70
2023-03-22T10:26:46.767Z,3.47
2023-03-22T10:29:36.122Z,2.90
2023-03-22T10:32:29.351Z,10.63
2023-03-22T10:34:56.801Z,4.13
2023-03-22T10:37:36.037Z,2.63
2023-03-22T10:40:08.614Z,3.90
2023-03-22T10:42:39.672Z,5.30
2023-03-22T10:45:13.203Z,4.40
2023-03-22T10:47:58.066Z,2.70
2023-03-22T10:50:29.667Z,1.77
2023-03-22T10:53:43.189Z,5.57
2023-03-22T10:56:15.827Z,2.00
2023-03-22T10:58:42.965Z,2.80
2023-03-22T11:01:13.691Z,3.30
2023-03-22T11:03:48.487Z,6.70
2023-03-22T11:06:18.932Z,4.90
2023-03-22T11:08:51.497Z,2.67
2023-03-22T11:11:27.856Z,1.47
2023-03-22T11:14:16.777Z,3.97
2023-03-22T11:17:12.697Z,1.87
2023-03-22T11:19:52.722Z,1.90
2023-03-22T11:22:41.265Z,3.40
2023-03-22T11:25:21.303Z,2.97
2023-03-22T11:28:14.992Z,6.53
2023-03-22T11:30:57.205Z,1.37
2023-03-22T11:33:26.016Z,8.20
2023-03-22T11:35:58.156Z,1.50
2023-03-22T11:38:36.705Z,3.13
2023-03-22T11:41:08.840Z,6.33
2023-03-22T11:43:39.446Z,1.83
2023-03-22T11:46:09.055Z,3.53
2023-03-22T11:48:36.896Z,1.83
2023-03-22T11:51:09.453Z,4.33
2023-03-22T11:53:39.799Z,1.40
2023-03-22T11:56:09.282Z,2.80
2023-03-22T11:58:55.558Z,3.80
2023-03-22T12:01:41.957Z,2.40
2023-03-22T12:04:17.242Z,1.80
2023-03-22T12:06:44.471Z,3.10
2023-03-22T12:09:47.196Z,1.10
2023-03-22T12:12:23.231Z,3.73
2023-03-22T12:15:28.149Z,2.07
2023-03-22T12:18:14.538Z,1.00
2023-03-22T12:20:58.916Z,3.47
2023-03-22T12:23:29.006Z,1.93
2023-03-22T12:26:29.335Z,2.97
2023-03-22T12:29:01.616Z,1.97
2023-03-22T12:31:33.088Z,3.57
2023-03-22T12:34:04.953Z,1.33
2023-03-22T12:36:41.926Z,4.60
2023-03-22T12:39:37.642Z,3.70
2023-03-22T12:42:13.354Z,4.30
2023-03-22T12:44:46.452Z,2.23
2023-03-22T12:47:46.809Z,2.50
2023-03-22T12:50:44.015Z,4.70
2023-03-22T12:53:16.715Z,5.83
2023-03-22T12:55:55.287Z,1.87
2023-03-22T12:58:25.725Z,3.93
2023-03-22T13:00:59.281Z,3.97
2023-03-22T13:03:39.284Z,2.47
2023-03-22T13:06:28.082Z,3.17
2023-03-22T13:09:50.908Z,10.63
2023-03-22T13:12:28.988Z,1.60
2023-03-22T13:15:01.460Z,1.30
2023-03-22T13:17:28.342Z,1.30
2023-03-22T13:20:25.730Z,2.00
2023-03-22T13:23:04.387Z,2.70
2023-03-22T13:25:36.731Z,2.80
2023-03-22T13:28:37.382Z,6.60
2023-03-22T13:31:05.746Z,3.00
2023-03-22T13:33:35.948Z,1.93
2023-03-22T13:36:25.067Z,2.10
2023-03-22T13:39:02.887Z,1.60
2023-03-22T13:41:36.558Z,5.40
2023-03-22T13:44:39.443Z,1.97
2023-03-22T13:47:30.701Z,2.30
2023-03-22T13:50:21.110Z,2.63
2023-03-22T13:53:05.165Z,3.60
2023-03-22T13:55:57.566Z,2.20
2023-03-22T13:58:50.990Z,2.70
2023-03-22T14:01:29.586Z,1.00
2023-03-22T14:04:03.454Z,6.87
2023-03-22T14:06:39.171Z,2.00
2023-03-22T14:09:29.768Z,3.30
2023-03-22T14:12:08.603Z,4.70
2023-03-22T14:14:44.421Z,1.97
2023-03-22T14:17:21.041Z,2.70
2023-03-22T14:19:49.009Z,1.93
